Time;durP1;ratioP1;P1;durP2;ratioP2;P2;SDS_P1;SDS_P2;PMS_P1;PMS_P2;Temp;Humidity;BMP_temperature;BMP_pressure;BME280_temperature;BME280_humidity;BME280_pressure;Samples;Min_cycle;Max_cycle;Signal;HPM_P1;HPM_P2
2021/06/21 00:01:07;;;;;;;14.98;8.38;;;;;;;23.29;66.84;100262.94;5061811;28;20028;-58
2021/06/21 00:03:33;;;;;;;11.48;8.15;;;;;;;23.30;66.60;100254.91;5061592;28;20025;-58
2021/06/21 00:05:58;;;;;;;12.60;9.40;;;;;;;23.33;66.63;100253.84;5061753;28;20017;-57
2021/06/21 00:08:24;;;;;;;14.70;8.77;;;;;;;23.33;66.82;100260.00;5061729;28;20029;-57
2021/06/21 00:10:50;;;;;;;15.75;9.02;;;;;;;23.27;66.96;100258.59;5061782;28;20024;-58
2021/06/21 00:13:17;;;;;;;10.80;8.48;;;;;;;23.26;67.41;100264.84;5061755;28;20037;-58
2021/06/21 00:15:43;;;;;;;16.65;8.73;;;;;;;23.23;67.03;100258.88;5061563;28;20056;-58
2021/06/21 00:18:12;;;;;;;16.58;8.25;;;;;;;23.22;66.92;100268.63;5061783;28;20060;-59
2021/06/21 00:20:38;;;;;;;13.35;8.30;;;;;;;23.21;66.93;100263.44;5063798;28;20365;-58
2021/06/21 00:23:04;;;;;;;13.25;8.40;;;;;;;23.15;67.29;100269.97;5065103;28;20013;-59
2021/06/21 00:25:29;;;;;;;13.40;7.95;;;;;;;23.16;66.85;100263.75;5065469;28;20333;-59
2021/06/21 00:28:02;;;;;;;17.85;8.93;;;;;;;23.14;67.31;100268.25;5065437;28;20048;-59
2021/06/21 00:30:28;;;;;;;12.15;8.07;;;;;;;23.14;67.03;100265.63;5065132;28;20041;-59
2021/06/21 00:32:55;;;;;;;13.93;8.35;;;;;;;23.14;67.16;100265.63;5064982;28;20330;-59
2021/06/21 00:35:21;;;;;;;14.18;8.45;;;;;;;23.11;67.50;100265.81;5065033;28;20055;-59
2021/06/21 00:37:47;;;;;;;11.88;9.00;;;;;;;23.10;67.30;100264.09;5064934;28;20067;-59
2021/06/21 00:40:14;;;;;;;13.43;7.95;;;;;;;23.10;67.20;100262.31;5064706;28;20069;-59
2021/06/21 00:42:43;;;;;;;14.68;8.88;;;;;;;23.08;67.63;100260.72;5064829;28;20041;-59
2021/06/21 00:45:11;;;;;;;14.15;7.95;;;;;;;23.06;67.50;100262.63;5064822;28;20060;-59
2021/06/21 00:47:36;;;;;;;9.55;7.75;;;;;;;23.06;67.38;100262.63;5064729;28;20052;-59
2021/06/21 00:50:03;;;;;;;15.15;8.65;;;;;;;23.02;67.62;100261.13;5064763;28;20032;-59
2021/06/21 00:52:29;;;;;;;15.38;7.72;;;;;;;23.03;67.62;100265.44;5064563;28;20267;-58
2021/06/21 00:55:02;;;;;;;9.15;8.05;;;;;;;22.83;68.16;100262.28;5064612;28;20067;-59
2021/06/21 00:57:32;;;;;;;10.68;7.72;;;;;;;22.79;68.40;100265.19;5064609;28;20048;-58
2021/06/21 01:00:00;;;;;;;12.73;8.02;;;;;;;22.86;68.42;100266.50;5064587;28;20064;-58
2021/06/21 01:02:27;;;;;;;10.55;7.93;;;;;;;22.90;67.75;100260.94;5064354;28;20061;-58
2021/06/21 01:04:55;;;;;;;10.85;7.93;;;;;;;22.63;67.74;100221.31;5064470;28;20044;-58
2021/06/21 01:07:21;;;;;;;11.43;8.20;;;;;;;22.84;67.69;100255.19;5064450;28;20048;-58
2021/06/21 01:09:50;;;;;;;12.43;8.18;;;;;;;22.89;68.01;100276.91;5064578;28;20064;-58
2021/06/21 01:12:54;;;;;;;11.68;8.25;;;;;;;22.78;68.84;100271.44;5064406;28;20056;-58
2021/06/21 01:15:20;;;;;;;12.77;8.30;;;;;;;22.77;68.50;100265.31;5036923;28;20088;-58
2021/06/21 01:17:51;;;;;;;10.52;8.05;;;;;;;22.80;68.83;100270.38;5054376;28;20321;-58
2021/06/21 01:20:20;;;;;;;12.70;8.18;;;;;;;22.79;69.04;100271.34;5084206;28;20063;-58
2021/06/21 01:22:58;;;;;;;9.52;7.78;;;;;;;22.82;68.47;100273.78;5080693;28;20052;-58
2021/06/21 01:25:42;;;;;;;19.63;8.23;;;;;;;22.79;69.29;100276.63;5064117;28;20040;-58
2021/06/21 01:28:56;;;;;;;15.90;8.40;;;;;;;22.75;69.51;100270.69;5064053;28;20048;-58
2021/06/21 01:31:28;;;;;;;14.30;8.73;;;;;;;22.69;69.71;100268.44;5063425;28;20048;-58
2021/06/21 01:33:55;;;;;;;16.58;8.60;;;;;;;22.75;69.16;100275.13;5063878;28;20044;-58
2021/06/21 01:36:24;;;;;;;18.05;9.35;;;;;;;22.72;69.70;100277.97;5063746;28;20348;-59
2021/06/21 01:38:55;;;;;;;19.90;9.35;;;;;;;22.70;69.62;100271.91;5063701;28;20045;-58
2021/06/21 01:41:44;;;;;;;15.02;9.50;;;;;;;22.31;70.95;100233.84;5063857;28;20289;-58
2021/06/21 01:44:13;;;;;;;18.85;9.35;;;;;;;22.60;70.25;100276.06;5063669;28;20055;-58
2021/06/21 01:46:40;;;;;;;15.23;8.63;;;;;;;22.61;70.44;100283.91;5063664;28;20044;-57
2021/06/21 01:49:10;;;;;;;13.93;8.40;;;;;;;22.60;70.42;100262.88;5063752;28;20060;-58
2021/06/21 01:51:39;;;;;;;13.18;8.55;;;;;;;22.38;70.36;100237.81;5063843;28;20055;-58
2021/06/21 01:54:08;;;;;;;17.73;8.18;;;;;;;22.42;70.10;100239.34;5063454;28;20052;-56
2021/06/21 01:56:40;;;;;;;13.73;8.82;;;;;;;22.68;70.34;100284.38;5063428;28;20037;-58
2021/06/21 01:59:08;;;;;;;19.92;9.35;;;;;;;22.72;70.30;100288.53;5063503;28;20060;-56
2021/06/21 02:01:34;;;;;;;13.98;9.23;;;;;;;22.66;70.78;100278.31;5063388;28;20056;-57
2021/06/21 02:04:04;;;;;;;15.82;9.13;;;;;;;22.40;70.51;100242.06;5063079;28;20250;-57
2021/06/21 02:06:33;;;;;;;9.88;8.45;;;;;;;22.66;70.46;100276.56;5063601;28;20052;-56
2021/06/21 02:09:00;;;;;;;11.57;8.75;;;;;;;22.71;70.41;100284.19;5063223;28;20064;-56
2021/06/21 02:11:27;;;;;;;17.13;9.75;;;;;;;22.75;70.58;100290.97;5063162;28;20040;-56
2021/06/21 02:13:55;;;;;;;14.63;9.05;;;;;;;22.66;70.60;100280.97;5063024;28;20063;-57
2021/06/21 02:16:22;;;;;;;15.07;9.35;;;;;;;22.70;71.08;100274.56;5063046;28;20131;-57
2021/06/21 02:18:50;;;;;;;16.45;9.32;;;;;;;22.72;71.06;100280.59;5063197;28;20056;-57
2021/06/21 02:21:18;;;;;;;15.65;9.23;;;;;;;22.55;70.92;100242.88;5061819;28;20040;-57
2021/06/21 02:23:46;;;;;;;16.20;9.15;;;;;;;22.72;70.57;100262.13;5062944;28;20052;-57
2021/06/21 02:26:13;;;;;;;13.20;8.75;;;;;;;22.84;71.31;100284.25;5062881;28;20052;-58
2021/06/21 02:28:40;;;;;;;16.65;9.43;;;;;;;22.85;71.29;100280.69;5062934;28;20056;-58
2021/06/21 02:31:07;;;;;;;12.70;8.75;;;;;;;22.57;71.30;100229.59;5062810;28;20045;-57
2021/06/21 02:33:34;;;;;;;17.10;9.38;;;;;;;22.91;70.92;100281.13;5062728;28;20345;-58
2021/06/21 02:36:00;;;;;;;19.60;9.55;;;;;;;22.95;70.91;100280.94;5062772;28;20271;-58
2021/06/21 02:38:26;;;;;;;16.15;9.27;;;;;;;23.05;70.68;100276.75;5062551;28;20040;-58
2021/06/21 02:40:52;;;;;;;15.32;8.65;;;;;;;23.12;70.09;100279.91;5062571;28;20368;-58
2021/06/21 02:43:18;;;;;;;19.70;9.10;;;;;;;23.15;70.42;100277.91;5061872;28;20376;-59
2021/06/21 02:45:44;;;;;;;12.05;8.50;;;;;;;23.18;70.43;100272.41;5062683;28;20021;-60
2021/06/21 02:48:11;;;;;;;21.55;9.73;;;;;;;23.21;70.66;100274.84;5044826;28;20071;-58
2021/06/21 02:50:42;;;;;;;26.83;9.63;;;;;;;23.20;70.43;100264.38;5062570;28;20056;-57
2021/06/21 02:53:27;;;;;;;17.10;8.93;;;;;;;23.35;70.22;100273.13;5062589;28;20049;-58
2021/06/21 02:56:23;;;;;;;17.38;9.13;;;;;;;23.46;70.35;100275.03;5062648;28;20049;-58
2021/06/21 02:58:57;;;;;;;16.23;8.88;;;;;;;23.26;69.22;100232.28;5062402;28;20067;-58
2021/06/21 03:01:34;;;;;;;17.23;8.25;;;;;;;23.65;68.47;100272.88;5062487;28;20344;-57
2021/06/21 03:04:01;;;;;;;18.80;8.98;;;;;;;23.73;68.02;100277.66;5062067;28;20115;-57
2021/06/21 03:06:28;;;;;;;17.27;8.05;;;;;;;23.51;67.99;100226.19;5062158;28;20045;-57
2021/06/21 03:08:55;;;;;;;13.82;7.90;;;;;;;23.92;67.59;100282.59;5062642;28;20079;-57
2021/06/21 03:11:23;;;;;;;13.52;8.57;;;;;;;24.02;67.41;100282.81;5062404;28;20104;-56
2021/06/21 03:13:52;;;;;;;17.08;7.60;;;;;;;24.07;67.24;100280.69;5062341;28;20053;-57
2021/06/21 03:16:19;;;;;;;14.20;8.10;;;;;;;24.12;66.68;100287.34;5062384;28;20333;-57
2021/06/21 03:18:49;;;;;;;10.52;7.38;;;;;;;24.19;66.28;100284.31;5062470;28;20327;-58
2021/06/21 03:21:18;;;;;;;12.27;7.07;;;;;;;24.27;65.96;100293.41;5062533;28;20048;-58
2021/06/21 03:23:44;;;;;;;12.52;7.53;;;;;;;24.30;65.83;100293.19;5062199;28;20047;-58
2021/06/21 03:26:11;;;;;;;11.55;7.38;;;;;;;24.38;65.71;100294.47;5062087;28;20104;-57
2021/06/21 03:28:37;;;;;;;14.98;7.35;;;;;;;24.47;65.75;100301.78;5062082;28;20041;-57
2021/06/21 03:31:05;;;;;;;13.32;7.22;;;;;;;24.53;65.45;100293.38;5062143;28;20020;-57
2021/06/21 03:33:32;;;;;;;12.35;6.65;;;;;;;24.55;64.91;100270.28;5062066;28;20059;-57
2021/06/21 03:35:59;;;;;;;11.23;7.28;;;;;;;24.75;64.12;100291.91;5062145;28;20049;-58
2021/06/21 03:38:27;;;;;;;14.52;7.63;;;;;;;24.59;61.51;100245.28;5062049;28;20037;-58
2021/06/21 03:40:57;;;;;;;13.13;7.65;;;;;;;24.94;59.58;100294.94;5061895;28;20258;-58
2021/06/21 03:43:24;;;;;;;13.20;7.03;;;;;;;25.02;59.60;100301.47;5062016;28;20060;-58
2021/06/21 03:45:54;;;;;;;11.38;6.72;;;;;;;24.87;59.65;100268.97;5061821;28;20048;-58
2021/06/21 03:48:20;;;;;;;14.20;6.93;;;;;;;25.14;58.99;100298.78;5061882;28;20055;-58
2021/06/21 03:50:47;;;;;;;11.57;6.00;;;;;;;25.22;57.70;100308.81;5061811;28;20033;-58
2021/06/21 03:53:14;;;;;;;17.55;6.75;;;;;;;25.29;57.75;100307.41;5061644;28;20049;-58
2021/06/21 03:55:40;;;;;;;12.73;6.78;;;;;;;25.40;57.68;100306.66;5065759;28;20063;-58
2021/06/21 03:58:06;;;;;;;10.23;6.75;;;;;;;25.57;58.98;100305.41;5065651;28;20160;-59
2021/06/21 04:00:34;;;;;;;12.43;6.70;;;;;;;25.44;58.35;100267.47;5065518;28;20021;-58
2021/06/21 04:03:02;;;;;;;13.25;6.28;;;;;;;25.74;58.10;100311.25;5065327;28;20048;-58
2021/06/21 04:05:28;;;;;;;9.70;6.28;;;;;;;25.80;57.63;100306.34;5065669;28;20313;-58
2021/06/21 04:07:54;;;;;;;8.70;5.53;;;;;;;25.88;58.46;100308.44;5065642;28;20068;-58
2021/06/21 04:10:24;;;;;;;9.35;6.47;;;;;;;25.89;57.68;100315.41;5065417;28;20056;-59
2021/06/21 04:12:51;;;;;;;11.07;6.70;;;;;;;25.64;57.21;100274.81;5065286;28;20269;-58
2021/06/21 04:15:20;;;;;;;9.00;6.60;;;;;;;25.92;56.92;100311.69;5065310;28;20658;-58
2021/06/21 04:17:46;;;;;;;9.85;6.32;;;;;;;26.04;57.44;100317.88;5065472;28;20322;-58
2021/06/21 04:20:17;;;;;;;11.60;6.50;;;;;;;25.96;56.91;100298.03;5065441;28;20052;-59
2021/06/21 04:22:43;;;;;;;12.43;6.65;;;;;;;26.06;56.53;100310.66;5065090;28;20041;-58
2021/06/21 04:25:14;;;;;;;11.80;6.72;;;;;;;26.12;56.83;100321.66;5065020;28;20040;-59
2021/06/21 04:27:41;;;;;;;15.65;7.68;;;;;;;26.14;57.19;100311.75;5065227;28;20052;-59
2021/06/21 04:30:10;;;;;;;10.57;7.15;;;;;;;26.20;56.86;100312.28;5065150;28;20091;-58
2021/06/21 04:32:38;;;;;;;11.65;6.50;;;;;;;26.25;57.15;100315.41;5065028;28;20045;-58
2021/06/21 04:35:06;;;;;;;17.58;7.55;;;;;;;25.99;57.57;100284.53;5064848;28;20036;-57
2021/06/21 04:37:33;;;;;;;21.35;7.93;;;;;;;26.24;56.24;100308.38;5064845;28;20036;-57
2021/06/21 04:40:00;;;;;;;13.13;7.47;;;;;;;26.36;56.01;100320.72;5065007;28;20325;-57
2021/06/21 04:42:26;;;;;;;13.18;7.85;;;;;;;26.31;56.26;100314.94;5064836;28;20372;-57
2021/06/21 04:44:52;;;;;;;15.05;7.95;;;;;;;26.29;55.33;100316.84;5064576;28;20029;-57
2021/06/21 04:47:23;;;;;;;20.02;7.68;;;;;;;26.40;54.66;100316.03;5064683;28;20059;-58
2021/06/21 04:49:53;;;;;;;19.03;10.73;;;;;;;26.41;55.06;100315.03;5064839;28;20270;-58
2021/06/21 04:52:22;;;;;;;10.45;7.35;;;;;;;26.50;56.21;100319.66;5064699;28;20056;-59
2021/06/21 04:54:49;;;;;;;17.08;7.45;;;;;;;26.66;55.02;100325.44;5064665;28;20041;-56
2021/06/21 04:57:15;;;;;;;14.38;6.95;;;;;;;26.56;55.75;100318.34;5064574;28;20352;-57
2021/06/21 04:59:41;;;;;;;12.40;6.82;;;;;;;26.67;54.27;100321.81;5064785;28;20356;-57
2021/06/21 05:02:06;;;;;;;11.95;6.35;;;;;;;26.81;53.73;100325.25;5064515;28;20037;-58
2021/06/21 05:04:32;;;;;;;11.82;6.25;;;;;;;26.95;53.86;100322.31;5064361;28;20047;-58
2021/06/21 05:06:58;;;;;;;15.43;7.50;;;;;;;26.81;55.06;100280.06;5063482;28;20246;-58
2021/06/21 05:09:24;;;;;;;13.30;6.43;;;;;;;27.19;53.97;100318.63;5064406;28;20349;-59
2021/06/21 05:11:51;;;;;;;11.70;6.85;;;;;;;27.04;53.74;100313.59;5064368;28;20028;-59
2021/06/21 05:14:17;;;;;;;13.75;6.70;;;;;;;27.22;52.54;100315.72;5064083;28;20360;-59
2021/06/21 05:16:43;;;;;;;15.65;6.57;;;;;;;27.24;52.98;100323.59;5064145;28;20258;-58
2021/06/21 05:19:09;;;;;;;16.00;6.72;;;;;;;27.43;51.48;100322.97;5064152;28;20056;-58
2021/06/21 05:21:36;;;;;;;14.68;6.60;;;;;;;27.43;52.17;100317.66;5064180;28;20061;-57
2021/06/21 05:24:02;;;;;;;11.52;6.43;;;;;;;27.67;52.32;100322.75;5074383;28;20040;-57
2021/06/21 05:26:29;;;;;;;8.63;5.78;;;;;;;27.89;52.46;100313.78;5063957;28;20056;-59
2021/06/21 05:28:55;;;;;;;13.15;5.65;;;;;;;27.89;52.01;100316.44;5063777;28;20056;-58
2021/06/21 05:31:21;;;;;;;12.55;6.18;;;;;;;27.94;52.52;100319.59;5064010;28;20025;-57
2021/06/21 05:33:48;;;;;;;16.45;6.18;;;;;;;27.86;51.58;100320.25;5063714;28;20056;-57
2021/06/21 05:36:13;;;;;;;16.58;6.15;;;;;;;27.77;51.44;100310.34;5063775;28;20040;-57
2021/06/21 05:38:39;;;;;;;14.52;5.97;;;;;;;27.98;52.42;100313.06;5062567;28;20040;-57
2021/06/21 05:41:06;;;;;;;12.88;6.28;;;;;;;27.95;51.65;100313.28;5062745;28;20353;-57
2021/06/21 05:43:31;;;;;;;11.27;5.43;;;;;;;28.14;50.60;100314.41;5076620;28;20047;-57
2021/06/21 05:45:57;;;;;;;8.68;6.05;;;;;;;28.17;50.96;100306.16;5063567;28;20088;-58
2021/06/21 05:48:23;;;;;;;8.90;5.95;;;;;;;28.16;50.53;100320.44;5046195;28;20029;-58
2021/06/21 05:50:50;;;;;;;11.35;5.85;;;;;;;28.16;51.22;100320.44;5046004;28;20048;-58
2021/06/21 05:53:17;;;;;;;12.48;6.15;;;;;;;28.01;51.36;100314.63;5063420;28;20041;-58
2021/06/21 05:55:42;;;;;;;9.05;6.07;;;;;;;28.05;51.31;100318.72;5063776;28;20360;-59
2021/06/21 05:58:08;;;;;;;10.98;5.20;;;;;;;28.15;50.56;100318.78;5063277;28;20088;-59
2021/06/21 06:00:34;;;;;;;14.55;5.85;;;;;;;28.36;48.15;100310.75;5062303;28;20017;-59
2021/06/21 06:03:00;;;;;;;11.15;6.00;;;;;;;28.47;49.40;100320.47;5063265;28;20029;-59
2021/06/21 06:05:26;;;;;;;11.65;5.63;;;;;;;28.55;49.80;100310.84;5063236;28;20035;-59
2021/06/21 06:07:52;;;;;;;7.53;5.40;;;;;;;28.59;50.20;100306.94;5080772;28;20017;-59
2021/06/21 06:10:19;;;;;;;10.90;5.60;;;;;;;28.87;48.01;100312.50;5083296;28;20233;-59
2021/06/21 06:12:44;;;;;;;9.55;4.93;;;;;;;28.82;49.65;100314.75;5083104;28;20333;-57
2021/06/21 06:15:11;;;;;;;14.32;5.88;;;;;;;28.66;49.47;100311.75;5066326;28;20027;-57
2021/06/21 06:17:38;;;;;;;7.10;5.15;;;;;;;28.47;49.77;100313.31;5063069;28;20063;-59
2021/06/21 06:20:05;;;;;;;15.75;4.57;;;;;;;28.65;48.80;100308.25;5062985;28;20055;-58
2021/06/21 06:22:32;;;;;;;9.95;4.25;;;;;;;28.65;49.32;100310.06;5062857;28;20053;-58
2021/06/21 06:24:58;;;;;;;8.15;3.65;;;;;;;28.53;44.36;100314.59;5063148;28;20102;-58
2021/06/21 06:27:24;;;;;;;6.28;4.13;;;;;;;28.75;46.14;100313.63;5061758;28;20043;-58
2021/06/21 06:29:50;;;;;;;8.20;3.88;;;;;;;28.82;46.38;100303.22;5062793;28;20060;-58
2021/06/21 06:32:16;;;;;;;7.07;3.55;;;;;;;28.78;45.19;100317.84;5062880;28;20201;-58
2021/06/21 06:34:41;;;;;;;5.63;3.80;;;;;;;28.93;45.59;100298.66;5062569;28;20207;-58
2021/06/21 06:37:10;;;;;;;6.88;3.42;;;;;;;28.93;43.65;100303.97;5062777;28;20040;-59
2021/06/21 06:39:36;;;;;;;7.18;3.40;;;;;;;29.03;43.21;100305.81;5062434;28;20052;-58
2021/06/21 06:42:02;;;;;;;4.78;2.83;;;;;;;28.78;42.97;100309.84;5062774;28;20040;-59
2021/06/21 06:44:28;;;;;;;6.05;3.05;;;;;;;28.89;43.82;100291.06;5062825;28;20052;-58
2021/06/21 06:46:54;;;;;;;6.22;2.95;;;;;;;29.09;43.29;100307.94;5062667;28;20032;-58
2021/06/21 06:49:20;;;;;;;6.38;3.60;;;;;;;29.13;44.03;100306.69;5062750;28;20198;-57
2021/06/21 06:51:50;;;;;;;6.75;3.15;;;;;;;29.17;42.26;100304.56;5062507;28;20017;-58
2021/06/21 06:59:31;;;;;;;9.20;2.92;;;;;;;29.33;41.59;100307.59;5062075;28;20258;-59
2021/06/21 07:01:58;;;;;;;7.30;3.00;;;;;;;29.14;41.38;100304.84;5062092;28;20052;-59
2021/06/21 07:04:25;;;;;;;8.63;3.17;;;;;;;29.32;42.52;100311.22;5062286;28;20044;-59
2021/06/21 07:06:51;;;;;;;5.07;2.95;;;;;;;29.43;42.32;100303.09;5062359;28;20360;-59
2021/06/21 07:09:18;;;;;;;4.82;3.38;;;;;;;29.65;42.64;100308.28;5062132;28;20270;-59
2021/06/21 07:11:45;;;;;;;7.05;3.97;;;;;;;29.69;43.19;100299.84;5062104;28;20052;-58
2021/06/21 07:14:12;;;;;;;6.18;3.13;;;;;;;29.81;42.29;100299.69;5062144;28;20044;-58
2021/06/21 07:16:37;;;;;;;10.93;3.35;;;;;;;29.83;40.59;100295.03;5062127;28;20049;-57
2021/06/21 07:19:03;;;;;;;9.68;3.65;;;;;;;29.85;40.37;100301.13;5062193;28;20041;-59
2021/06/21 07:21:29;;;;;;;7.30;4.00;;;;;;;29.84;40.74;100308.28;5062224;28;20244;-58
2021/06/21 07:23:55;;;;;;;6.28;3.58;;;;;;;29.93;40.38;100304.78;5060872;28;20067;-58
2021/06/21 07:26:22;;;;;;;9.95;3.42;;;;;;;29.89;40.25;100316.72;5062258;28;20056;-59
2021/06/21 07:28:49;;;;;;;9.13;3.40;;;;;;;29.79;39.81;100310.53;5063116;28;20056;-57
2021/06/21 07:31:15;;;;;;;7.47;4.15;;;;;;;29.79;39.75;100308.69;5081724;28;20040;-58
2021/06/21 07:33:41;;;;;;;6.63;3.90;;;;;;;29.81;40.10;100305.88;5066030;28;20100;-59
2021/06/21 07:36:07;;;;;;;10.30;4.53;;;;;;;29.70;40.55;100303.34;5066188;28;20071;-57
2021/06/21 07:38:33;;;;;;;6.63;4.20;;;;;;;29.81;41.60;100302.38;5066236;28;20067;-59
2021/06/21 07:40:59;;;;;;;9.40;4.10;;;;;;;29.85;41.28;100295.78;5065931;28;20364;-58
2021/06/21 07:43:25;;;;;;;7.45;3.75;;;;;;;29.83;38.89;100297.72;5065803;28;20029;-58
2021/06/21 07:45:50;;;;;;;7.55;3.40;;;;;;;29.91;40.37;100305.91;5065872;28;20056;-58
2021/06/21 07:48:17;;;;;;;5.93;4.03;;;;;;;29.93;40.00;100303.94;5065952;28;20041;-59
2021/06/21 07:50:44;;;;;;;7.50;3.92;;;;;;;29.93;39.04;100304.78;5066214;28;20063;-59
2021/06/21 07:53:10;;;;;;;7.60;3.72;;;;;;;30.07;39.37;100302.63;5013590;28;20052;-58
2021/06/21 07:55:36;;;;;;;7.45;3.58;;;;;;;29.93;41.22;100295.94;5053645;28;20048;-56
2021/06/21 07:58:03;;;;;;;9.98;4.30;;;;;;;30.05;40.13;100302.78;5065618;28;20055;-58
2021/06/21 08:00:30;;;;;;;7.60;4.13;;;;;;;29.77;39.76;100270.63;5065711;28;20044;-58
2021/06/21 08:02:56;;;;;;;7.97;3.83;;;;;;;30.20;41.01;100313.00;5065621;28;20052;-58
2021/06/21 08:05:23;;;;;;;7.13;4.10;;;;;;;30.22;40.13;100309.19;5065831;28;20036;-58
2021/06/21 08:07:49;;;;;;;8.32;3.67;;;;;;;30.31;39.75;100304.81;5065728;28;20063;-59
2021/06/21 08:10:16;;;;;;;7.15;3.60;;;;;;;30.31;39.89;100315.50;5065625;28;20282;-59
2021/06/21 08:12:43;;;;;;;4.93;3.03;;;;;;;30.41;38.69;100302.97;5065519;28;20041;-59
2021/06/21 08:15:11;;;;;;;5.60;3.53;;;;;;;30.40;39.69;100311.97;5065252;28;20053;-58
2021/06/21 08:17:41;;;;;;;7.03;3.40;;;;;;;30.39;38.66;100307.59;5064113;28;20337;-58
2021/06/21 08:20:10;;;;;;;5.95;3.30;;;;;;;30.33;38.69;100302.84;5062815;28;20045;-59
2021/06/21 08:22:37;;;;;;;10.45;3.72;;;;;;;30.36;41.41;100310.56;5064453;28;20325;-58
2021/06/21 08:25:05;;;;;;;4.65;2.65;;;;;;;30.50;40.21;100301.28;5064468;28;20279;-59
2021/06/21 08:27:31;;;;;;;7.43;3.20;;;;;;;30.49;39.62;100301.41;5065200;28;20063;-58
2021/06/21 08:29:58;;;;;;;5.97;2.90;;;;;;;30.46;38.97;100306.06;5065223;28;20033;-58
2021/06/21 08:32:26;;;;;;;13.77;4.03;;;;;;;30.52;40.11;100295.78;5065172;28;20041;-58
2021/06/21 08:34:52;;;;;;;5.78;2.95;;;;;;;30.54;38.55;100293.78;5064981;28;20048;-58
2021/06/21 08:37:20;;;;;;;6.45;3.05;;;;;;;30.06;37.36;100301.78;5066583;28;20065;-58
2021/06/21 08:39:48;;;;;;;8.75;3.47;;;;;;;30.42;38.53;100288.63;5084286;28;20060;-58
2021/06/21 08:42:15;;;;;;;4.03;2.83;;;;;;;30.61;39.33;100290.38;5084450;28;20051;-59
2021/06/21 08:44:42;;;;;;;5.15;2.63;;;;;;;30.26;38.61;100281.19;5075430;28;20321;-59
2021/06/21 08:47:11;;;;;;;6.68;2.88;;;;;;;30.30;39.11;100255.03;5064959;28;20259;-58
2021/06/21 08:49:43;;;;;;;4.22;2.33;;;;;;;30.63;38.46;100295.59;5064980;28;20250;-57
2021/06/21 08:52:10;;;;;;;6.15;2.65;;;;;;;30.35;36.38;100290.16;5069924;28;20055;-57
2021/06/21 08:54:36;;;;;;;6.80;3.05;;;;;;;30.40;38.54;100295.94;5076759;28;20243;-57
2021/06/21 08:57:04;;;;;;;4.10;2.55;;;;;;;29.97;38.97;100256.41;5064668;28;20040;-57
2021/06/21 08:59:30;;;;;;;8.05;2.60;;;;;;;30.58;38.55;100287.16;5064523;28;20049;-57
2021/06/21 09:01:56;;;;;;;4.82;2.75;;;;;;;30.82;37.88;100299.97;5064238;28;20033;-59
2021/06/21 09:04:23;;;;;;;5.78;2.92;;;;;;;30.93;37.28;100289.06;5064339;28;20047;-59
2021/06/21 09:06:49;;;;;;;7.10;2.90;;;;;;;31.04;38.15;100289.88;5064582;28;20061;-60
2021/06/21 09:09:15;;;;;;;4.63;2.88;;;;;;;30.98;38.07;100289.47;5064508;28;20052;-57
2021/06/21 09:11:49;;;;;;;6.53;3.03;;;;;;;30.92;38.05;100294.56;5064389;28;20036;-59
2021/06/21 09:14:23;;;;;;;5.18;3.13;;;;;;;30.74;39.33;100294.53;5064189;28;20048;-58
2021/06/21 09:16:50;;;;;;;7.93;3.03;;;;;;;30.69;39.61;100283.44;5067041;28;20069;-58
2021/06/21 09:19:18;;;;;;;7.72;3.00;;;;;;;30.91;39.58;100285.72;5064221;28;20047;-58
2021/06/21 09:21:45;;;;;;;4.63;2.53;;;;;;;30.60;38.03;100283.34;5063834;28;20271;-60
2021/06/21 09:24:19;;;;;;;3.72;2.85;;;;;;;30.36;37.44;100253.59;5078469;28;20048;-59
2021/06/21 09:26:50;;;;;;;5.70;2.70;;;;;;;30.81;38.20;100274.22;5064086;28;20057;-60
2021/06/21 09:29:16;;;;;;;5.90;2.40;;;;;;;30.43;36.30;100281.47;5064194;28;20059;-57
2021/06/21 09:31:57;;;;;;;8.02;3.22;;;;;;;30.28;38.03;100265.00;5064022;28;20024;-57
2021/06/21 09:34:26;;;;;;;7.05;2.35;;;;;;;30.49;38.62;100270.16;5063701;28;20045;-58
2021/06/21 09:36:53;;;;;;;3.17;2.45;;;;;;;30.74;37.76;100279.34;5064022;28;20059;-61
2021/06/21 09:39:32;;;;;;;4.32;2.40;;;;;;;30.75;37.10;100285.50;5063752;28;20053;-58
2021/06/21 09:42:13;;;;;;;4.35;2.40;;;;;;;30.89;35.42;100279.66;5063700;28;20273;-58
2021/06/21 09:45:00;;;;;;;6.45;2.40;;;;;;;30.74;35.34;100244.56;5063590;28;20045;-58
2021/06/21 09:47:34;;;;;;;6.20;2.45;;;;;;;30.89;37.94;100287.69;5063616;28;20074;-59
2021/06/21 09:50:07;;;;;;;4.05;2.20;;;;;;;30.88;38.30;100285.16;5063602;28;20048;-58
2021/06/21 09:52:41;;;;;;;6.18;2.30;;;;;;;30.77;34.11;100270.16;5063388;28;20341;-59
2021/06/21 09:55:16;;;;;;;5.68;2.40;;;;;;;30.65;35.20;100250.78;5063653;28;20048;-59
2021/06/21 09:57:44;;;;;;;6.00;1.83;;;;;;;30.58;33.69;100289.81;5063464;28;20044;-58
2021/06/21 10:00:13;;;;;;;3.83;2.33;;;;;;;30.36;34.23;100275.81;5063369;28;20055;-58
2021/06/21 10:02:40;;;;;;;3.20;2.45;;;;;;;30.26;34.64;100249.13;5063407;28;20037;-58
2021/06/21 10:05:20;;;;;;;3.60;2.10;;;;;;;30.39;36.06;100238.09;5064386;28;20055;-57
2021/06/21 10:07:47;;;;;;;5.85;2.40;;;;;;;30.64;34.93;100279.38;5078681;28;20277;-57
2021/06/21 10:10:21;;;;;;;5.47;2.47;;;;;;;30.29;35.93;100231.97;5070464;28;20274;-57
2021/06/21 10:12:47;;;;;;;5.18;2.50;;;;;;;30.55;37.78;100282.94;5063010;28;20060;-58
2021/06/21 10:15:14;;;;;;;4.40;2.17;;;;;;;30.20;39.03;100281.78;5062900;28;20041;-59
2021/06/21 10:17:40;;;;;;;6.72;2.00;;;;;;;30.53;36.33;100279.56;5063234;28;20052;-58
2021/06/21 10:20:08;;;;;;;3.65;2.30;;;;;;;30.56;37.98;100270.44;5074723;28;20056;-58
2021/06/21 10:22:35;;;;;;;4.60;2.30;;;;;;;30.62;37.39;100270.66;5071040;28;20056;-58
2021/06/21 10:25:01;;;;;;;5.32;2.80;;;;;;;30.67;36.97;100267.56;5062937;28;20052;-58
2021/06/21 10:27:30;;;;;;;3.33;2.13;;;;;;;30.58;36.24;100271.09;5070706;28;20255;-58
2021/06/21 10:29:56;;;;;;;6.05;2.38;;;;;;;30.70;35.91;100269.06;5072068;28;20055;-58
2021/06/21 10:32:26;;;;;;;3.63;2.42;;;;;;;30.78;36.55;100247.75;5061958;28;20067;-60
2021/06/21 10:34:52;;;;;;;3.88;2.13;;;;;;;30.87;36.28;100262.94;5062959;28;20048;-58
2021/06/21 10:37:21;;;;;;;3.80;2.00;;;;;;;30.81;35.85;100258.16;5062170;28;20067;-59
2021/06/21 10:40:00;;;;;;;5.03;2.22;;;;;;;30.47;36.04;100210.63;5062583;28;20331;-58
2021/06/21 10:42:37;;;;;;;3.38;2.13;;;;;;;30.42;36.04;100248.53;5062398;28;20049;-58
2021/06/21 10:45:07;;;;;;;2.97;2.20;;;;;;;30.62;36.11;100246.59;5062968;28;20059;-60
2021/06/21 10:47:41;;;;;;;2.88;2.35;;;;;;;30.80;36.72;100235.09;5062686;28;20067;-58
2021/06/21 10:50:16;;;;;;;8.55;2.13;;;;;;;30.89;37.43;100244.88;5062607;28;20045;-58
2021/06/21 10:52:53;;;;;;;4.40;2.55;;;;;;;30.69;37.74;100244.16;5062672;28;20341;-58
2021/06/21 10:57:49;;;;;;;3.38;2.65;;;;;;;30.91;37.28;100242.91;5062333;28;20052;-58
2021/06/21 11:00:17;;;;;;;5.45;2.20;;;;;;;30.88;36.42;100243.19;5062024;28;20056;-57
2021/06/21 11:02:43;;;;;;;5.40;2.67;;;;;;;30.89;38.06;100238.69;5061917;28;20060;-58
2021/06/21 11:05:10;;;;;;;4.05;2.17;;;;;;;30.86;37.98;100233.66;5061886;28;20208;-57
2021/06/21 11:07:37;;;;;;;3.22;2.33;;;;;;;30.89;37.51;100231.50;5062370;28;20321;-58
2021/06/21 11:10:06;;;;;;;3.38;2.20;;;;;;;30.90;37.42;100233.19;5062299;28;20294;-58
2021/06/21 11:12:35;;;;;;;5.15;2.40;;;;;;;30.97;37.30;100242.28;5062404;28;20044;-58
2021/06/21 11:15:07;;;;;;;3.13;2.10;;;;;;;30.81;35.75;100234.09;5062275;28;20049;-58
2021/06/21 11:17:43;;;;;;;5.75;2.03;;;;;;;30.71;34.90;100228.78;5062201;28;20230;-58
2021/06/21 11:20:30;;;;;;;2.88;2.05;;;;;;;30.80;35.97;100233.25;5062173;28;20064;-59
2021/06/21 11:22:59;;;;;;;4.20;2.55;;;;;;;30.86;35.86;100231.81;5062268;28;20052;-59
2021/06/21 11:25:32;;;;;;;4.60;2.50;;;;;;;30.66;36.59;100203.50;5062245;28;20049;-58
2021/06/21 11:28:00;;;;;;;4.65;2.35;;;;;;;30.87;36.37;100229.97;5061177;28;20060;-58
2021/06/21 11:30:26;;;;;;;3.40;2.30;;;;;;;30.59;35.82;100224.66;5061939;28;20052;-58
2021/06/21 11:33:06;;;;;;;6.45;2.67;;;;;;;30.42;38.20;100187.03;5061001;28;20294;-58
2021/06/21 11:35:52;;;;;;;4.80;2.13;;;;;;;30.91;36.87;100223.31;5060986;28;20283;-58